sensor_id;sensor_type;location;lat;lon;timestamp;temperature;humidity
8947;DHT22;4508;48.790;9.028;2022-09-13T00:00:28;16.20;99.90
8947;DHT22;4508;48.790;9.028;2022-09-13T00:02:57;16.10;99.90
8947;DHT22;4508;48.790;9.028;2022-09-13T00:05:24;16.10;99.90
8947;DHT22;4508;48.790;9.028;2022-09-13T00:07:50;16.10;99.90
8947;DHT22;4508;48.790;9.028;2022-09-13T00:10:17;16.00;99.90
8947;DHT22;4508;48.790;9.028;2022-09-13T00:12:44;15.90;99.90
8947;DHT22;4508;48.790;9.028;2022-09-13T00:15:11;15.80;99.90
8947;DHT22;4508;48.790;9.028;2022-09-13T00:17:37;15.80;99.90
8947;DHT22;4508;48.790;9.028;2022-09-13T00:20:07;15.90;99.90
8947;DHT22;4508;48.790;9.028;2022-09-13T00:22:34;15.80;99.90
8947;DHT22;4508;48.790;9.028;2022-09-13T00:25:00;15.80;99.90
8947;DHT22;4508;48.790;9.028;2022-09-13T00:27:27;15.90;99.90
8947;DHT22;4508;48.790;9.028;2022-09-13T00:29:54;15.90;99.90
8947;DHT22;4508;48.790;9.028;2022-09-13T00:32:20;15.80;99.90
8947;DHT22;4508;48.790;9.028;2022-09-13T00:34:47;15.80;99.90
8947;DHT22;4508;48.790;9.028;2022-09-13T00:37:15;15.70;99.90
8947;DHT22;4508;48.790;9.028;2022-09-13T00:39:42;15.70;99.90
8947;DHT22;4508;48.790;9.028;2022-09-13T00:42:10;15.70;99.90
8947;DHT22;4508;48.790;9.028;2022-09-13T00:44:53;15.70;99.90
8947;DHT22;4508;48.790;9.028;2022-09-13T00:47:28;15.70;99.90
8947;DHT22;4508;48.790;9.028;2022-09-13T00:50:04;15.70;99.90
8947;DHT22;4508;48.790;9.028;2022-09-13T00:52:35;15.70;99.90
8947;DHT22;4508;48.790;9.028;2022-09-13T00:55:07;15.80;99.90
8947;DHT22;4508;48.790;9.028;2022-09-13T00:57:34;15.80;99.90
8947;DHT22;4508;48.790;9.028;2022-09-13T01:00:06;15.80;99.90
8947;DHT22;4508;48.790;9.028;2022-09-13T01:02:39;15.90;99.90
8947;DHT22;4508;48.790;9.028;2022-09-13T01:05:07;15.90;99.90
8947;DHT22;4508;48.790;9.028;2022-09-13T01:07:36;15.90;99.90
8947;DHT22;4508;48.790;9.028;2022-09-13T01:10:04;15.80;99.90
8947;DHT22;4508;48.790;9.028;2022-09-13T01:12:36;15.80;99.90
8947;DHT22;4508;48.790;9.028;2022-09-13T01:15:06;15.80;99.90
8947;DHT22;4508;48.790;9.028;2022-09-13T01:17:33;15.80;99.90
8947;DHT22;4508;48.790;9.028;2022-09-13T01:20:02;15.80;99.90
8947;DHT22;4508;48.790;9.028;2022-09-13T01:25:54;15.80;99.90
8947;DHT22;4508;48.790;9.028;2022-09-13T01:28:38;15.70;99.90
8947;DHT22;4508;48.790;9.028;2022-09-13T01:31:14;15.80;99.90
8947;DHT22;4508;48.790;9.028;2022-09-13T01:33:56;15.80;99.90
8947;DHT22;4508;48.790;9.028;2022-09-13T01:39:59;15.70;99.90
8947;DHT22;4508;48.790;9.028;2022-09-13T01:42:40;15.60;99.90
8947;DHT22;4508;48.790;9.028;2022-09-13T01:45:20;15.50;99.90
8947;DHT22;4508;48.790;9.028;2022-09-13T01:47:53;15.50;99.90
8947;DHT22;4508;48.790;9.028;2022-09-13T01:50:29;15.40;99.90
8947;DHT22;4508;48.790;9.028;2022-09-13T01:53:02;15.50;99.90
8947;DHT22;4508;48.790;9.028;2022-09-13T01:55:35;15.50;99.90
8947;DHT22;4508;48.790;9.028;2022-09-13T01:58:11;15.60;99.90
8947;DHT22;4508;48.790;9.028;2022-09-13T02:00:45;15.60;99.90
8947;DHT22;4508;48.790;9.028;2022-09-13T02:03:16;15.40;99.90
8947;DHT22;4508;48.790;9.028;2022-09-13T02:05:48;15.10;99.90
8947;DHT22;4508;48.790;9.028;2022-09-13T02:08:20;15.40;99.90
8947;DHT22;4508;48.790;9.028;2022-09-13T02:10:50;15.50;99.90
8947;DHT22;4508;48.790;9.028;2022-09-13T02:13:21;15.50;99.90
8947;DHT22;4508;48.790;9.028;2022-09-13T02:15:52;15.70;99.90
8947;DHT22;4508;48.790;9.028;2022-09-13T02:18:24;15.70;99.90
8947;DHT22;4508;48.790;9.028;2022-09-13T02:20:54;15.60;99.90
8947;DHT22;4508;48.790;9.028;2022-09-13T02:23:29;15.50;99.90
8947;DHT22;4508;48.790;9.028;2022-09-13T02:25:59;15.50;99.90
8947;DHT22;4508;48.790;9.028;2022-09-13T02:28:31;15.40;99.90
8947;DHT22;4508;48.790;9.028;2022-09-13T02:30:59;15.30;99.90
8947;DHT22;4508;48.790;9.028;2022-09-13T02:33:33;15.30;99.90
8947;DHT22;4508;48.790;9.028;2022-09-13T02:36:02;15.20;99.90
8947;DHT22;4508;48.790;9.028;2022-09-13T02:38:32;15.20;99.90
8947;DHT22;4508;48.790;9.028;2022-09-13T02:41:05;15.00;99.90
8947;DHT22;4508;48.790;9.028;2022-09-13T02:43:37;15.00;99.90
8947;DHT22;4508;48.790;9.028;2022-09-13T02:46:24;15.00;99.90
8947;DHT22;4508;48.790;9.028;2022-09-13T02:48:57;14.90;99.90
8947;DHT22;4508;48.790;9.028;2022-09-13T02:51:31;15.00;99.90
8947;DHT22;4508;48.790;9.028;2022-09-13T02:54:06;15.10;99.90
8947;DHT22;4508;48.790;9.028;2022-09-13T02:56:42;15.10;99.90
8947;DHT22;4508;48.790;9.028;2022-09-13T02:59:13;15.00;99.90
8947;DHT22;4508;48.790;9.028;2022-09-13T03:01:41;15.00;99.90
8947;DHT22;4508;48.790;9.028;2022-09-13T03:04:11;15.00;99.90
8947;DHT22;4508;48.790;9.028;2022-09-13T03:06:39;15.00;99.90
8947;DHT22;4508;48.790;9.028;2022-09-13T03:09:06;15.00;99.90
8947;DHT22;4508;48.790;9.028;2022-09-13T03:11:45;15.00;99.90
8947;DHT22;4508;48.790;9.028;2022-09-13T03:14:28;15.00;99.90
8947;DHT22;4508;48.790;9.028;2022-09-13T03:17:17;15.00;99.90
8947;DHT22;4508;48.790;9.028;2022-09-13T03:20:09;15.20;99.90
8947;DHT22;4508;48.790;9.028;2022-09-13T03:25:58;14.90;99.90
8947;DHT22;4508;48.790;9.028;2022-09-13T03:28:33;14.80;99.90
8947;DHT22;4508;48.790;9.028;2022-09-13T03:31:06;14.90;99.90
8947;DHT22;4508;48.790;9.028;2022-09-13T03:33:41;15.00;99.90
8947;DHT22;4508;48.790;9.028;2022-09-13T03:36:13;15.00;99.90
8947;DHT22;4508;48.790;9.028;2022-09-13T03:38:46;15.00;99.90
8947;DHT22;4508;48.790;9.028;2022-09-13T03:41:23;15.00;99.90
8947;DHT22;4508;48.790;9.028;2022-09-13T03:43:53;14.80;99.90
8947;DHT22;4508;48.790;9.028;2022-09-13T03:46:24;14.70;99.90
8947;DHT22;4508;48.790;9.028;2022-09-13T03:48:54;14.50;99.90
8947;DHT22;4508;48.790;9.028;2022-09-13T03:51:23;14.50;99.90
8947;DHT22;4508;48.790;9.028;2022-09-13T03:53:54;14.50;99.90
8947;DHT22;4508;48.790;9.028;2022-09-13T03:56:21;14.60;99.90
8947;DHT22;4508;48.790;9.028;2022-09-13T03:58:48;14.50;99.90
8947;DHT22;4508;48.790;9.028;2022-09-13T04:01:18;14.50;99.90
8947;DHT22;4508;48.790;9.028;2022-09-13T04:03:46;14.30;99.90
8947;DHT22;4508;48.790;9.028;2022-09-13T04:06:12;14.10;99.90
8947;DHT22;4508;48.790;9.028;2022-09-13T04:08:41;14.00;99.90
8947;DHT22;4508;48.790;9.028;2022-09-13T04:11:08;14.20;99.90
8947;DHT22;4508;48.790;9.028;2022-09-13T04:13:35;14.40;99.90
8947;DHT22;4508;48.790;9.028;2022-09-13T04:16:02;14.40;99.90
8947;DHT22;4508;48.790;9.028;2022-09-13T04:18:29;14.20;99.90
8947;DHT22;4508;48.790;9.028;2022-09-13T04:20:58;14.30;99.90
8947;DHT22;4508;48.790;9.028;2022-09-13T04:23:26;14.70;99.90
8947;DHT22;4508;48.790;9.028;2022-09-13T04:26:00;14.70;99.90
8947;DHT22;4508;48.790;9.028;2022-09-13T04:28:27;14.70;99.90
8947;DHT22;4508;48.790;9.028;2022-09-13T04:30:53;14.70;99.90
8947;DHT22;4508;48.790;9.028;2022-09-13T04:33:20;14.60;99.90
8947;DHT22;4508;48.790;9.028;2022-09-13T04:35:47;14.60;99.90
8947;DHT22;4508;48.790;9.028;2022-09-13T04:38:14;14.50;99.90
8947;DHT22;4508;48.790;9.028;2022-09-13T04:40:41;14.40;99.90
8947;DHT22;4508;48.790;9.028;2022-09-13T04:43:09;14.00;99.90
8947;DHT22;4508;48.790;9.028;2022-09-13T04:45:36;13.90;99.90
8947;DHT22;4508;48.790;9.028;2022-09-13T04:48:03;13.80;99.90
8947;DHT22;4508;48.790;9.028;2022-09-13T04:50:30;14.00;99.90
8947;DHT22;4508;48.790;9.028;2022-09-13T04:52:57;14.40;99.90
8947;DHT22;4508;48.790;9.028;2022-09-13T04:55:23;14.60;99.90
8947;DHT22;4508;48.790;9.028;2022-09-13T04:57:54;14.60;99.90
8947;DHT22;4508;48.790;9.028;2022-09-13T05:00:22;14.50;99.90
8947;DHT22;4508;48.790;9.028;2022-09-13T05:02:54;14.40;99.90
8947;DHT22;4508;48.790;9.028;2022-09-13T05:05:20;14.40;99.90
8947;DHT22;4508;48.790;9.028;2022-09-13T05:07:49;14.20;99.90
8947;DHT22;4508;48.790;9.028;2022-09-13T05:10:15;14.10;99.90
8947;DHT22;4508;48.790;9.028;2022-09-13T05:12:42;14.00;99.90
8947;DHT22;4508;48.790;9.028;2022-09-13T05:15:09;14.00;99.90
8947;DHT22;4508;48.790;9.028;2022-09-13T05:17:38;14.10;99.90
8947;DHT22;4508;48.790;9.028;2022-09-13T05:20:05;14.20;99.90
8947;DHT22;4508;48.790;9.028;2022-09-13T05:22:32;14.30;99.90
8947;DHT22;4508;48.790;9.028;2022-09-13T05:24:59;14.30;99.90
8947;DHT22;4508;48.790;9.028;2022-09-13T05:27:25;14.00;99.90
8947;DHT22;4508;48.790;9.028;2022-09-13T05:29:52;13.80;99.90
8947;DHT22;4508;48.790;9.028;2022-09-13T05:32:19;13.90;99.90
8947;DHT22;4508;48.790;9.028;2022-09-13T05:34:47;14.10;99.90
8947;DHT22;4508;48.790;9.028;2022-09-13T05:37:13;14.20;99.90
8947;DHT22;4508;48.790;9.028;2022-09-13T05:39:40;14.40;99.90
8947;DHT22;4508;48.790;9.028;2022-09-13T05:42:07;14.10;99.90
8947;DHT22;4508;48.790;9.028;2022-09-13T05:44:33;14.10;99.90
8947;DHT22;4508;48.790;9.028;2022-09-13T05:47:00;14.20;99.90
8947;DHT22;4508;48.790;9.028;2022-09-13T05:49:27;14.30;99.90
8947;DHT22;4508;48.790;9.028;2022-09-13T05:51:55;14.50;99.90
8947;DHT22;4508;48.790;9.028;2022-09-13T05:54:21;14.70;99.90
8947;DHT22;4508;48.790;9.028;2022-09-13T05:56:48;14.80;99.90
8947;DHT22;4508;48.790;9.028;2022-09-13T05:59:16;15.00;99.90
8947;DHT22;4508;48.790;9.028;2022-09-13T06:01:43;15.40;99.90
8947;DHT22;4508;48.790;9.028;2022-09-13T06:04:10;15.50;99.90
8947;DHT22;4508;48.790;9.028;2022-09-13T06:06:37;15.50;99.90
8947;DHT22;4508;48.790;9.028;2022-09-13T06:09:05;15.70;99.90
8947;DHT22;4508;48.790;9.028;2022-09-13T06:11:33;16.30;99.90
8947;DHT22;4508;48.790;9.028;2022-09-13T06:13:59;16.40;99.90
8947;DHT22;4508;48.790;9.028;2022-09-13T06:16:26;16.40;99.90
8947;DHT22;4508;48.790;9.028;2022-09-13T06:18:53;16.30;99.90
8947;DHT22;4508;48.790;9.028;2022-09-13T06:21:21;16.10;99.90
8947;DHT22;4508;48.790;9.028;2022-09-13T06:23:49;16.00;99.90
8947;DHT22;4508;48.790;9.028;2022-09-13T06:26:19;15.90;99.90
8947;DHT22;4508;48.790;9.028;2022-09-13T06:28:46;15.90;99.90
8947;DHT22;4508;48.790;9.028;2022-09-13T06:31:15;15.70;99.90
8947;DHT22;4508;48.790;9.028;2022-09-13T06:33:43;15.80;99.90
8947;DHT22;4508;48.790;9.028;2022-09-13T06:36:11;17.10;99.90
8947;DHT22;4508;48.790;9.028;2022-09-13T06:38:39;18.30;99.90
8947;DHT22;4508;48.790;9.028;2022-09-13T06:41:08;19.00;99.90
8947;DHT22;4508;48.790;9.028;2022-09-13T06:43:36;19.70;99.90
8947;DHT22;4508;48.790;9.028;2022-09-13T06:46:05;20.10;99.90
8947;DHT22;4508;48.790;9.028;2022-09-13T06:48:33;21.20;99.90
8947;DHT22;4508;48.790;9.028;2022-09-13T06:51:02;21.90;99.90
8947;DHT22;4508;48.790;9.028;2022-09-13T06:53:29;22.40;99.90
8947;DHT22;4508;48.790;9.028;2022-09-13T06:56:00;21.20;99.90
8947;DHT22;4508;48.790;9.028;2022-09-13T06:58:28;21.50;99.90
8947;DHT22;4508;48.790;9.028;2022-09-13T07:01:06;23.40;99.90
8947;DHT22;4508;48.790;9.028;2022-09-13T07:03:35;23.60;99.90
8947;DHT22;4508;48.790;9.028;2022-09-13T07:06:06;25.40;99.90
8947;DHT22;4508;48.790;9.028;2022-09-13T07:08:34;25.90;99.90
8947;DHT22;4508;48.790;9.028;2022-09-13T07:11:00;26.60;99.90
8947;DHT22;4508;48.790;9.028;2022-09-13T07:13:27;27.10;99.90
8947;DHT22;4508;48.790;9.028;2022-09-13T07:15:54;26.80;99.90
8947;DHT22;4508;48.790;9.028;2022-09-13T07:18:24;27.00;99.90
8947;DHT22;4508;48.790;9.028;2022-09-13T07:20:51;27.30;99.90
8947;DHT22;4508;48.790;9.028;2022-09-13T07:23:18;26.70;99.90
8947;DHT22;4508;48.790;9.028;2022-09-13T07:25:52;25.00;99.90
8947;DHT22;4508;48.790;9.028;2022-09-13T07:28:19;25.40;99.90
8947;DHT22;4508;48.790;9.028;2022-09-13T07:30:46;25.50;99.90
8947;DHT22;4508;48.790;9.028;2022-09-13T07:33:13;24.40;99.90
8947;DHT22;4508;48.790;9.028;2022-09-13T07:35:41;25.20;99.90
8947;DHT22;4508;48.790;9.028;2022-09-13T07:38:07;24.60;99.90
8947;DHT22;4508;48.790;9.028;2022-09-13T07:40:34;25.30;99.90
8947;DHT22;4508;48.790;9.028;2022-09-13T07:43:01;25.00;99.90
8947;DHT22;4508;48.790;9.028;2022-09-13T07:45:27;23.90;99.90
8947;DHT22;4508;48.790;9.028;2022-09-13T07:47:54;24.50;99.90
8947;DHT22;4508;48.790;9.028;2022-09-13T07:50:21;26.70;99.90
8947;DHT22;4508;48.790;9.028;2022-09-13T07:52:49;28.70;99.90
8947;DHT22;4508;48.790;9.028;2022-09-13T07:55:15;28.50;99.90
8947;DHT22;4508;48.790;9.028;2022-09-13T07:57:42;30.10;99.90
8947;DHT22;4508;48.790;9.028;2022-09-13T08:00:10;28.50;99.90
8947;DHT22;4508;48.790;9.028;2022-09-13T08:02:37;28.70;99.90
8947;DHT22;4508;48.790;9.028;2022-09-13T08:05:04;28.80;99.90
8947;DHT22;4508;48.790;9.028;2022-09-13T08:07:31;28.60;99.90
8947;DHT22;4508;48.790;9.028;2022-09-13T08:09:59;28.80;99.90
8947;DHT22;4508;48.790;9.028;2022-09-13T08:12:26;28.40;99.90
8947;DHT22;4508;48.790;9.028;2022-09-13T08:14:52;28.60;99.90
8947;DHT22;4508;48.790;9.028;2022-09-13T08:17:19;27.80;99.90
8947;DHT22;4508;48.790;9.028;2022-09-13T08:19:45;27.60;99.90
8947;DHT22;4508;48.790;9.028;2022-09-13T08:22:12;26.90;99.90
8947;DHT22;4508;48.790;9.028;2022-09-13T08:24:39;26.00;99.90
8947;DHT22;4508;48.790;9.028;2022-09-13T08:27:07;26.70;99.90
8947;DHT22;4508;48.790;9.028;2022-09-13T08:29:33;26.70;99.90
8947;DHT22;4508;48.790;9.028;2022-09-13T08:32:00;26.30;99.90
8947;DHT22;4508;48.790;9.028;2022-09-13T08:34:27;26.40;99.90
8947;DHT22;4508;48.790;9.028;2022-09-13T08:36:54;27.30;99.90
8947;DHT22;4508;48.790;9.028;2022-09-13T08:39:20;28.40;99.90
8947;DHT22;4508;48.790;9.028;2022-09-13T08:42:13;28.10;99.90
8947;DHT22;4508;48.790;9.028;2022-09-13T08:44:44;27.20;99.90
8947;DHT22;4508;48.790;9.028;2022-09-13T08:47:18;27.00;99.90
8947;DHT22;4508;48.790;9.028;2022-09-13T08:49:48;27.30;99.90
8947;DHT22;4508;48.790;9.028;2022-09-13T08:52:23;26.80;99.90
8947;DHT22;4508;48.790;9.028;2022-09-13T08:54:52;27.60;99.90
8947;DHT22;4508;48.790;9.028;2022-09-13T08:57:27;28.00;99.90
8947;DHT22;4508;48.790;9.028;2022-09-13T09:00:02;27.20;99.90
8947;DHT22;4508;48.790;9.028;2022-09-13T09:02:45;27.60;99.90
8947;DHT22;4508;48.790;9.028;2022-09-13T09:05:17;27.00;99.90
8947;DHT22;4508;48.790;9.028;2022-09-13T09:07:46;29.80;99.90
8947;DHT22;4508;48.790;9.028;2022-09-13T09:10:16;31.60;99.90
8947;DHT22;4508;48.790;9.028;2022-09-13T09:12:46;28.90;99.90
8947;DHT22;4508;48.790;9.028;2022-09-13T09:15:17;28.70;99.90
8947;DHT22;4508;48.790;9.028;2022-09-13T09:17:50;29.80;99.90
8947;DHT22;4508;48.790;9.028;2022-09-13T09:20:26;31.80;99.90
8947;DHT22;4508;48.790;9.028;2022-09-13T09:22:54;31.90;99.90
8947;DHT22;4508;48.790;9.028;2022-09-13T09:25:21;30.20;99.90
8947;DHT22;4508;48.790;9.028;2022-09-13T09:27:50;29.90;99.90
8947;DHT22;4508;48.790;9.028;2022-09-13T09:30:18;28.30;99.90
8947;DHT22;4508;48.790;9.028;2022-09-13T09:33:06;28.40;99.90
8947;DHT22;4508;48.790;9.028;2022-09-13T09:35:45;28.90;99.90
8947;DHT22;4508;48.790;9.028;2022-09-13T09:38:32;28.80;99.90
8947;DHT22;4508;48.790;9.028;2022-09-13T09:41:05;29.00;99.90
8947;DHT22;4508;48.790;9.028;2022-09-13T09:43:38;29.00;99.90
8947;DHT22;4508;48.790;9.028;2022-09-13T09:46:09;28.40;99.90
8947;DHT22;4508;48.790;9.028;2022-09-13T09:48:41;28.30;99.90
8947;DHT22;4508;48.790;9.028;2022-09-13T09:51:10;27.70;99.90
8947;DHT22;4508;48.790;9.028;2022-09-13T09:53:41;27.90;99.90
8947;DHT22;4508;48.790;9.028;2022-09-13T09:56:19;28.40;99.90
8947;DHT22;4508;48.790;9.028;2022-09-13T09:58:49;28.40;99.90
8947;DHT22;4508;48.790;9.028;2022-09-13T10:01:20;29.20;99.90
8947;DHT22;4508;48.790;9.028;2022-09-13T10:03:50;27.90;99.90
8947;DHT22;4508;48.790;9.028;2022-09-13T10:06:19;28.00;99.90
8947;DHT22;4508;48.790;9.028;2022-09-13T10:08:53;28.10;99.90
8947;DHT22;4508;48.790;9.028;2022-09-13T10:11:20;28.30;99.90
8947;DHT22;4508;48.790;9.028;2022-09-13T10:14:00;28.30;99.90
8947;DHT22;4508;48.790;9.028;2022-09-13T10:16:28;29.00;99.90
8947;DHT22;4508;48.790;9.028;2022-09-13T10:19:22;29.60;99.90
8947;DHT22;4508;48.790;9.028;2022-09-13T10:21:59;29.70;99.90
8947;DHT22;4508;48.790;9.028;2022-09-13T10:24:27;28.50;99.90
8947;DHT22;4508;48.790;9.028;2022-09-13T10:26:55;29.20;99.90
8947;DHT22;4508;48.790;9.028;2022-09-13T10:29:23;28.60;99.90
8947;DHT22;4508;48.790;9.028;2022-09-13T10:31:51;28.60;99.90
8947;DHT22;4508;48.790;9.028;2022-09-13T10:34:22;28.00;99.90
8947;DHT22;4508;48.790;9.028;2022-09-13T10:36:53;29.00;99.90
8947;DHT22;4508;48.790;9.028;2022-09-13T10:39:22;31.20;99.90
8947;DHT22;4508;48.790;9.028;2022-09-13T10:41:51;30.30;99.90
8947;DHT22;4508;48.790;9.028;2022-09-13T10:44:31;30.40;99.90
8947;DHT22;4508;48.790;9.028;2022-09-13T10:47:01;30.20;99.90
8947;DHT22;4508;48.790;9.028;2022-09-13T10:49:36;30.00;99.90
8947;DHT22;4508;48.790;9.028;2022-09-13T10:52:23;29.80;99.90
8947;DHT22;4508;48.790;9.028;2022-09-13T10:54:51;29.30;99.90
8947;DHT22;4508;48.790;9.028;2022-09-13T10:57:32;30.50;99.90
8947;DHT22;4508;48.790;9.028;2022-09-13T11:00:01;30.70;99.90
8947;DHT22;4508;48.790;9.028;2022-09-13T11:02:48;29.50;99.90
8947;DHT22;4508;48.790;9.028;2022-09-13T11:05:23;29.80;99.90
8947;DHT22;4508;48.790;9.028;2022-09-13T11:08:02;29.70;99.90
8947;DHT22;4508;48.790;9.028;2022-09-13T11:10:36;29.20;99.90
8947;DHT22;4508;48.790;9.028;2022-09-13T11:13:13;28.20;99.90
8947;DHT22;4508;48.790;9.028;2022-09-13T11:15:54;28.60;99.90
8947;DHT22;4508;48.790;9.028;2022-09-13T11:18:36;29.10;99.90
8947;DHT22;4508;48.790;9.028;2022-09-13T11:21:17;29.80;99.90
8947;DHT22;4508;48.790;9.028;2022-09-13T11:24:13;29.80;99.90
8947;DHT22;4508;48.790;9.028;2022-09-13T11:26:53;29.10;99.90
8947;DHT22;4508;48.790;9.028;2022-09-13T11:29:30;28.80;99.90
8947;DHT22;4508;48.790;9.028;2022-09-13T11:32:07;29.20;99.90
8947;DHT22;4508;48.790;9.028;2022-09-13T11:34:46;28.70;99.90
8947;DHT22;4508;48.790;9.028;2022-09-13T11:37:36;28.80;99.90
8947;DHT22;4508;48.790;9.028;2022-09-13T11:40:31;29.40;99.90
8947;DHT22;4508;48.790;9.028;2022-09-13T11:43:10;29.00;99.90
8947;DHT22;4508;48.790;9.028;2022-09-13T11:45:44;29.80;99.90
8947;DHT22;4508;48.790;9.028;2022-09-13T11:51:22;29.40;99.90
8947;DHT22;4508;48.790;9.028;2022-09-13T11:54:00;29.30;99.90
8947;DHT22;4508;48.790;9.028;2022-09-13T11:56:33;28.70;99.90
8947;DHT22;4508;48.790;9.028;2022-09-13T11:59:14;29.40;99.90
8947;DHT22;4508;48.790;9.028;2022-09-13T12:01:45;28.70;99.90
8947;DHT22;4508;48.790;9.028;2022-09-13T12:04:17;27.70;99.90
8947;DHT22;4508;48.790;9.028;2022-09-13T12:06:47;27.80;99.90
8947;DHT22;4508;48.790;9.028;2022-09-13T12:09:20;27.80;99.90
8947;DHT22;4508;48.790;9.028;2022-09-13T12:11:50;28.00;99.90
8947;DHT22;4508;48.790;9.028;2022-09-13T12:14:22;28.20;99.90
8947;DHT22;4508;48.790;9.028;2022-09-13T12:16:52;29.60;99.90
8947;DHT22;4508;48.790;9.028;2022-09-13T12:19:23;29.80;99.90
8947;DHT22;4508;48.790;9.028;2022-09-13T12:21:52;29.50;99.90
8947;DHT22;4508;48.790;9.028;2022-09-13T12:24:28;28.70;99.90
8947;DHT22;4508;48.790;9.028;2022-09-13T12:26:59;28.70;99.90
8947;DHT22;4508;48.790;9.028;2022-09-13T12:29:30;28.40;99.90
8947;DHT22;4508;48.790;9.028;2022-09-13T12:32:00;28.40;99.90
8947;DHT22;4508;48.790;9.028;2022-09-13T12:34:41;27.80;99.90
8947;DHT22;4508;48.790;9.028;2022-09-13T12:37:49;28.50;99.90
8947;DHT22;4508;48.790;9.028;2022-09-13T12:40:38;28.70;99.90
8947;DHT22;4508;48.790;9.028;2022-09-13T12:43:30;28.80;99.90
8947;DHT22;4508;48.790;9.028;2022-09-13T12:46:13;29.00;99.90
8947;DHT22;4508;48.790;9.028;2022-09-13T12:49:03;28.90;99.90
8947;DHT22;4508;48.790;9.028;2022-09-13T12:51:50;28.60;99.90
8947;DHT22;4508;48.790;9.028;2022-09-13T12:54:44;29.10;99.90
8947;DHT22;4508;48.790;9.028;2022-09-13T12:57:27;28.90;99.90
8947;DHT22;4508;48.790;9.028;2022-09-13T13:00:11;29.00;99.90
8947;DHT22;4508;48.790;9.028;2022-09-13T13:02:41;28.80;99.90
8947;DHT22;4508;48.790;9.028;2022-09-13T13:05:21;29.80;99.90
8947;DHT22;4508;48.790;9.028;2022-09-13T13:07:53;29.60;99.90
8947;DHT22;4508;48.790;9.028;2022-09-13T13:10:25;29.20;99.90
8947;DHT22;4508;48.790;9.028;2022-09-13T13:12:52;29.50;99.90
8947;DHT22;4508;48.790;9.028;2022-09-13T13:15:54;29.70;99.90
8947;DHT22;4508;48.790;9.028;2022-09-13T13:18:25;29.00;99.90
8947;DHT22;4508;48.790;9.028;2022-09-13T13:21:25;28.50;99.90
8947;DHT22;4508;48.790;9.028;2022-09-13T13:26:58;29.40;99.90
8947;DHT22;4508;48.790;9.028;2022-09-13T13:29:25;30.70;99.90
8947;DHT22;4508;48.790;9.028;2022-09-13T13:32:08;31.30;99.90
8947;DHT22;4508;48.790;9.028;2022-09-13T13:34:42;32.50;99.90
8947;DHT22;4508;48.790;9.028;2022-09-13T13:37:36;32.10;99.90
8947;DHT22;4508;48.790;9.028;2022-09-13T13:40:24;32.00;99.40
8947;DHT22;4508;48.790;9.028;2022-09-13T13:46:26;30.70;99.40
8947;DHT22;4508;48.790;9.028;2022-09-13T13:48:53;30.20;99.50
8947;DHT22;4508;48.790;9.028;2022-09-13T13:51:22;29.40;99.90
8947;DHT22;4508;48.790;9.028;2022-09-13T13:53:56;29.30;99.20
8947;DHT22;4508;48.790;9.028;2022-09-13T13:56:30;29.30;99.60
8947;DHT22;4508;48.790;9.028;2022-09-13T13:59:02;29.60;98.80
8947;DHT22;4508;48.790;9.028;2022-09-13T14:01:34;29.50;99.10
8947;DHT22;4508;48.790;9.028;2022-09-13T14:04:47;28.90;98.70
8947;DHT22;4508;48.790;9.028;2022-09-13T14:07:35;28.90;99.60
8947;DHT22;4508;48.790;9.028;2022-09-13T14:10:11;28.40;99.90
8947;DHT22;4508;48.790;9.028;2022-09-13T14:12:52;28.80;99.90
8947;DHT22;4508;48.790;9.028;2022-09-13T14:15:35;29.10;99.30
8947;DHT22;4508;48.790;9.028;2022-09-13T14:21:20;28.80;99.90
8947;DHT22;4508;48.790;9.028;2022-09-13T14:23:47;28.80;99.70
8947;DHT22;4508;48.790;9.028;2022-09-13T14:26:14;29.10;99.60
8947;DHT22;4508;48.790;9.028;2022-09-13T14:28:40;29.20;99.10
8947;DHT22;4508;48.790;9.028;2022-09-13T14:31:16;29.10;98.30
8947;DHT22;4508;48.790;9.028;2022-09-13T14:33:44;29.00;98.40
8947;DHT22;4508;48.790;9.028;2022-09-13T14:36:19;29.00;99.00
8947;DHT22;4508;48.790;9.028;2022-09-13T14:38:48;28.80;97.50
8947;DHT22;4508;48.790;9.028;2022-09-13T14:41:17;28.70;97.40
8947;DHT22;4508;48.790;9.028;2022-09-13T14:43:45;28.50;96.90
8947;DHT22;4508;48.790;9.028;2022-09-13T14:46:16;28.60;96.90
8947;DHT22;4508;48.790;9.028;2022-09-13T14:48:47;28.40;97.60
8947;DHT22;4508;48.790;9.028;2022-09-13T14:51:20;28.40;97.20
8947;DHT22;4508;48.790;9.028;2022-09-13T14:53:51;28.20;97.40
8947;DHT22;4508;48.790;9.028;2022-09-13T14:56:28;27.90;97.30
8947;DHT22;4508;48.790;9.028;2022-09-13T14:58:59;27.60;96.70
8947;DHT22;4508;48.790;9.028;2022-09-13T15:01:28;27.60;96.50
8947;DHT22;4508;48.790;9.028;2022-09-13T15:03:57;27.60;98.10
8947;DHT22;4508;48.790;9.028;2022-09-13T15:06:27;27.30;99.10
8947;DHT22;4508;48.790;9.028;2022-09-13T15:08:57;27.30;99.50
8947;DHT22;4508;48.790;9.028;2022-09-13T15:11:30;27.10;99.80
8947;DHT22;4508;48.790;9.028;2022-09-13T15:16:48;27.20;99.70
8947;DHT22;4508;48.790;9.028;2022-09-13T15:19:26;27.30;99.90
8947;DHT22;4508;48.790;9.028;2022-09-13T15:22:04;27.40;99.90
8947;DHT22;4508;48.790;9.028;2022-09-13T15:24:34;27.20;99.40
8947;DHT22;4508;48.790;9.028;2022-09-13T15:27:06;27.20;99.40
8947;DHT22;4508;48.790;9.028;2022-09-13T15:29:33;27.00;98.80
8947;DHT22;4508;48.790;9.028;2022-09-13T15:32:02;26.70;98.90
8947;DHT22;4508;48.790;9.028;2022-09-13T15:34:31;26.60;98.60
8947;DHT22;4508;48.790;9.028;2022-09-13T15:37:08;26.50;98.90
8947;DHT22;4508;48.790;9.028;2022-09-13T15:39:42;26.60;99.00
8947;DHT22;4508;48.790;9.028;2022-09-13T15:42:09;26.40;99.40
8947;DHT22;4508;48.790;9.028;2022-09-13T15:44:36;26.30;99.40
8947;DHT22;4508;48.790;9.028;2022-09-13T15:47:08;26.20;99.00
8947;DHT22;4508;48.790;9.028;2022-09-13T15:49:37;26.10;98.80
8947;DHT22;4508;48.790;9.028;2022-09-13T15:52:06;26.10;98.60
8947;DHT22;4508;48.790;9.028;2022-09-13T15:54:34;26.00;98.50
8947;DHT22;4508;48.790;9.028;2022-09-13T15:57:05;25.90;98.60
8947;DHT22;4508;48.790;9.028;2022-09-13T15:59:32;26.00;98.10
8947;DHT22;4508;48.790;9.028;2022-09-13T16:01:59;25.80;97.60
8947;DHT22;4508;48.790;9.028;2022-09-13T16:04:27;25.70;98.10
8947;DHT22;4508;48.790;9.028;2022-09-13T16:06:54;25.60;98.10
8947;DHT22;4508;48.790;9.028;2022-09-13T16:09:24;25.50;98.60
8947;DHT22;4508;48.790;9.028;2022-09-13T16:11:52;25.40;98.70
8947;DHT22;4508;48.790;9.028;2022-09-13T16:14:19;25.40;98.60
8947;DHT22;4508;48.790;9.028;2022-09-13T16:16:46;25.40;98.70
8947;DHT22;4508;48.790;9.028;2022-09-13T16:19:15;25.40;98.30
8947;DHT22;4508;48.790;9.028;2022-09-13T16:21:42;25.30;98.30
8947;DHT22;4508;48.790;9.028;2022-09-13T16:24:09;25.30;97.70
8947;DHT22;4508;48.790;9.028;2022-09-13T16:26:38;25.20;97.40
8947;DHT22;4508;48.790;9.028;2022-09-13T16:29:05;25.10;96.80
8947;DHT22;4508;48.790;9.028;2022-09-13T16:31:32;25.00;96.70
8947;DHT22;4508;48.790;9.028;2022-09-13T16:33:59;25.00;96.50
8947;DHT22;4508;48.790;9.028;2022-09-13T16:36:26;24.90;96.50
8947;DHT22;4508;48.790;9.028;2022-09-13T16:38:53;24.90;96.70
8947;DHT22;4508;48.790;9.028;2022-09-13T16:41:20;24.80;96.60
8947;DHT22;4508;48.790;9.028;2022-09-13T16:43:48;24.70;96.80
8947;DHT22;4508;48.790;9.028;2022-09-13T16:46:15;24.70;96.90
8947;DHT22;4508;48.790;9.028;2022-09-13T16:48:42;24.60;99.80
8947;DHT22;4508;48.790;9.028;2022-09-13T16:51:11;24.50;98.80
8947;DHT22;4508;48.790;9.028;2022-09-13T16:53:39;24.50;98.10
8947;DHT22;4508;48.790;9.028;2022-09-13T16:56:08;24.50;98.00